This is the latest recevied weather packets stored in our database for station/object KB0OLA. If no packets are shown the sender has not sent any weather packets the latest 10 day(s).
| Time | Temp. | Humidity | Pressure | Rain* | Wind** | Luminosity | Snow |
|---|---|---|---|---|---|---|---|
| 1777504518 | 13.89° C | 34% | 1019 hPa | 0 mm | - | - | - |
| 1777503938 | 14.44° C | 34% | 1019 hPa | 0 mm | - | - | - |
| 1777502718 | 15° C | 36% | 1019.1 hPa | 0 mm | - | - | - |
| 1777500918 | 16.11° C | 33% | 1019.2 hPa | 0 mm | - | - | - |
| 1777497917 | 15.56° C | 28% | 1019.5 hPa | 0 mm | - | - | - |
| 1777497317 | 16.11° C | 26% | 1019.5 hPa | 0 mm | - | - | - |
| 1777490117 | 15° C | 31% | 1020.1 hPa | 0 mm | - | - | - |
| 1777488918 | 14.44° C | 32% | 1020.3 hPa | 0 mm | - | - | - |
| 1777482916 | 12.78° C | 34% | 1020.9 hPa | 0 mm | - | - | - |
| 1777478717 | 10.56° C | 41% | 1021.2 hPa | 0 mm | - | - | - |
| 1777476318 | 9.44° C | 46% | 1021.1 hPa | 0 mm | - | - | - |
| 1777475718 | 8.89° C | 42% | 1021 hPa | 0 mm | - | - | - |
| 1777471518 | 6.67° C | 52% | 1020.6 hPa | 0 mm | - | - | - |
| 1777465519 | 1.11° C | 69% | 1020.4 hPa | 0 mm | - | - | - |
| 1777464938 | 1.11° C | 68% | 1020.3 hPa | 0 mm | - | - | - |
| 1777463717 | 1.11° C | 67% | 1020.5 hPa | 0 mm | - | - | - |
| 1777460717 | 1.67° C | 64% | 1020.5 hPa | 0 mm | - | - | - |
| 1777459518 | 2.22° C | 62% | 1020.4 hPa | 0 mm | - | - | - |
| 1777458917 | 2.22° C | 60% | 1020.4 hPa | 0 mm | - | - | - |
| 1777454717 | 4.44° C | 55% | 1019.7 hPa | 0 mm | - | - | - |
| 1777453517 | 4.44° C | 53% | 1019.8 hPa | 0 mm | - | - | - |
| 1777452917 | 4.44° C | 53% | 1019.9 hPa | 0 mm | - | - | - |
| 1777446917 | 2.78° C | 61% | 1020.9 hPa | 0 mm | - | - | - |
| 1777445117 | 3.89° C | 57% | 1020.9 hPa | 0 mm | - | - | - |
| 1777443337 | 3.89° C | 57% | 1021 hPa | 0 mm | - | - | - |
* Rain latest hour (hover to see other rain measurements)
** Current wind speed in m/s (hover to see current wind gust speed)